createdAt,value
2018-05-26T00:00:31.406Z,7.73
2018-05-26T00:02:58.894Z,7.70
2018-05-26T00:05:26.407Z,9.10
2018-05-26T00:07:53.963Z,8.50
2018-05-26T00:10:21.446Z,10.80
2018-05-26T00:12:48.945Z,9.00
2018-05-26T00:15:16.460Z,8.03
2018-05-26T00:17:43.949Z,10.17
2018-05-26T00:20:11.426Z,10.33
2018-05-26T00:22:38.908Z,14.27
2018-05-26T00:25:06.384Z,9.30
2018-05-26T00:27:33.911Z,9.43
2018-05-26T00:30:01.402Z,11.47
2018-05-26T00:32:28.888Z,10.50
2018-05-26T00:34:56.381Z,11.80
2018-05-26T00:37:23.862Z,12.20
2018-05-26T00:39:51.324Z,9.40
2018-05-26T00:42:18.815Z,9.87
2018-05-26T00:44:46.292Z,10.87
2018-05-26T00:47:13.775Z,8.47
2018-05-26T00:49:41.254Z,9.53
2018-05-26T00:52:08.759Z,8.00
2018-05-26T00:54:36.220Z,10.10
2018-05-26T00:57:03.680Z,10.27
2018-05-26T00:59:31.182Z,11.50
2018-05-26T01:01:58.637Z,8.13
2018-05-26T01:04:26.135Z,8.70
2018-05-26T01:06:53.609Z,10.50
2018-05-26T01:09:21.113Z,12.33
2018-05-26T01:11:48.589Z,8.77
2018-05-26T01:14:16.072Z,10.93
2018-05-26T01:16:43.559Z,10.80
2018-05-26T01:19:11.046Z,10.90
2018-05-26T01:21:38.532Z,10.23
2018-05-26T01:24:06.036Z,22.63
2018-05-26T01:26:33.555Z,15.90
2018-05-26T01:29:01.030Z,11.23
2018-05-26T01:31:28.488Z,11.87
2018-05-26T01:33:55.970Z,9.93
2018-05-26T01:36:23.448Z,10.57
2018-05-26T01:38:50.947Z,14.13
2018-05-26T01:41:18.431Z,12.90
2018-05-26T01:43:45.933Z,10.80
2018-05-26T01:46:13.411Z,16.53
2018-05-26T01:48:40.884Z,10.30
2018-05-26T01:51:08.340Z,14.70
2018-05-26T01:53:35.801Z,9.00
2018-05-26T01:56:03.329Z,8.80
2018-05-26T01:58:30.823Z,10.47
2018-05-26T02:00:58.306Z,13.67
2018-05-26T02:03:25.787Z,9.77
2018-05-26T02:05:53.302Z,11.50
2018-05-26T02:08:20.778Z,8.77
2018-05-26T02:10:48.245Z,12.83
2018-05-26T02:13:15.726Z,10.47
2018-05-26T02:15:43.254Z,13.37
2018-05-26T02:18:10.716Z,10.93
2018-05-26T02:20:38.167Z,8.67
2018-05-26T02:23:05.650Z,12.47
2018-05-26T02:25:33.199Z,10.37
2018-05-26T02:28:00.691Z,9.33
2018-05-26T02:30:28.187Z,9.27
2018-05-26T02:32:55.659Z,10.93
2018-05-26T02:35:23.146Z,10.20
2018-05-26T02:37:50.627Z,9.80
2018-05-26T02:40:18.127Z,10.37
2018-05-26T02:42:45.611Z,13.77
2018-05-26T02:45:13.119Z,11.67
2018-05-26T02:47:40.601Z,12.23
2018-05-26T02:50:08.154Z,15.90
2018-05-26T02:52:35.606Z,12.03
2018-05-26T02:55:03.076Z,14.27
2018-05-26T02:57:30.555Z,13.30
2018-05-26T02:59:58.249Z,12.13
2018-05-26T03:02:25.748Z,10.77
2018-05-26T03:04:58.941Z,13.47
2018-05-26T03:07:32.021Z,14.67
2018-05-26T03:10:05.029Z,15.00
2018-05-26T03:12:37.981Z,11.60
2018-05-26T03:15:05.034Z,10.97
2018-05-26T03:17:42.443Z,12.90
2018-05-26T03:20:09.958Z,13.13
2018-05-26T03:22:37.455Z,15.00
2018-05-26T03:25:04.934Z,17.23
2018-05-26T03:27:32.401Z,16.80
2018-05-26T03:29:59.900Z,11.70
2018-05-26T03:32:27.389Z,14.33
2018-05-26T03:34:54.902Z,14.90
2018-05-26T03:37:22.385Z,14.37
2018-05-26T03:39:49.862Z,12.27
2018-05-26T03:42:17.364Z,12.70
2018-05-26T03:44:44.844Z,15.60
2018-05-26T03:47:12.354Z,15.83
2018-05-26T03:49:39.823Z,13.00
2018-05-26T03:52:07.290Z,17.13
2018-05-26T03:54:46.779Z,18.33
2018-05-26T04:02:55.659Z,16.37
2018-05-26T04:11:07.070Z,11.90
2018-05-26T04:13:34.544Z,14.87
2018-05-26T04:16:02.043Z,12.40
2018-05-26T04:18:29.548Z,13.03
2018-05-26T04:20:57.026Z,14.50
2018-05-26T04:23:24.501Z,14.87
2018-05-26T04:25:52.060Z,13.77
2018-05-26T04:31:10.107Z,12.13
2018-05-26T04:33:37.603Z,13.13
2018-05-26T04:36:05.081Z,16.03
2018-05-26T04:38:32.803Z,16.30
2018-05-26T04:41:00.285Z,15.03
2018-05-26T04:43:27.800Z,14.20
2018-05-26T04:45:55.279Z,18.13
2018-05-26T04:48:22.844Z,17.07
2018-05-26T04:50:50.334Z,13.30
2018-05-26T04:53:18.065Z,18.90
2018-05-26T04:55:45.565Z,15.53
2018-05-26T04:58:13.061Z,21.03
2018-05-26T05:00:40.625Z,16.57
2018-05-26T05:03:08.101Z,14.47
2018-05-26T05:05:35.612Z,15.83
2018-05-26T05:08:03.100Z,14.60
2018-05-26T05:10:30.662Z,11.77
2018-05-26T05:12:58.280Z,14.80
2018-05-26T05:15:25.754Z,13.77
2018-05-26T05:17:53.258Z,17.83
2018-05-26T05:20:44.441Z,11.70
2018-05-26T05:26:02.429Z,12.47
2018-05-26T05:28:29.924Z,16.10
2018-05-26T05:30:57.401Z,12.60
2018-05-26T05:33:24.863Z,13.17
2018-05-26T05:35:52.522Z,17.87
2018-05-26T05:38:20.123Z,12.07
2018-05-26T05:40:47.616Z,13.73
2018-05-26T05:43:15.093Z,14.17
2018-05-26T05:45:42.574Z,13.07
2018-05-26T05:48:10.097Z,14.43
2018-05-26T05:50:39.199Z,10.57
2018-05-26T05:53:06.671Z,9.90
2018-05-26T05:55:35.987Z,10.43
2018-05-26T05:58:03.482Z,12.67
2018-05-26T06:00:32.738Z,11.97
2018-05-26T06:05:50.778Z,9.07
2018-05-26T06:08:18.279Z,11.90
2018-05-26T06:10:45.787Z,9.53
2018-05-26T06:13:13.373Z,12.97
2018-05-26T06:15:40.858Z,14.77
2018-05-26T06:18:08.353Z,11.17
2018-05-26T06:20:35.885Z,12.67
2018-05-26T06:23:03.349Z,11.47
2018-05-26T06:25:30.811Z,12.07
2018-05-26T06:27:58.373Z,11.47
2018-05-26T06:30:25.875Z,12.70
2018-05-26T06:33:03.376Z,12.23
2018-05-26T06:35:30.866Z,10.23
2018-05-26T06:37:58.368Z,9.70
2018-05-26T06:40:25.981Z,14.30
2018-05-26T06:42:54.965Z,10.47
2018-05-26T06:45:25.148Z,10.97
2018-05-26T06:48:03.521Z,10.03
2018-05-26T06:50:30.997Z,9.00
2018-05-26T06:52:58.464Z,13.87
2018-05-26T06:55:25.938Z,11.70
2018-05-26T06:57:53.439Z,10.00
2018-05-26T07:00:20.968Z,13.20
2018-05-26T07:02:48.400Z,9.13
2018-05-26T07:05:15.871Z,16.13
2018-05-26T07:07:43.335Z,8.73
2018-05-26T07:10:10.803Z,10.23
2018-05-26T07:12:38.269Z,11.30
2018-05-26T07:15:05.905Z,8.00
2018-05-26T07:17:33.456Z,13.70
2018-05-26T07:20:00.972Z,8.67
2018-05-26T07:22:28.439Z,7.13
2018-05-26T07:24:55.964Z,6.67
2018-05-26T07:27:23.442Z,7.30
2018-05-26T07:29:50.956Z,10.97
2018-05-26T07:32:18.539Z,8.93
2018-05-26T07:34:46.027Z,9.57
2018-05-26T07:37:13.533Z,10.23
2018-05-26T07:39:41.024Z,7.33
2018-05-26T07:42:08.482Z,8.80
2018-05-26T07:44:35.974Z,8.50
2018-05-26T07:47:03.480Z,7.33
2018-05-26T07:49:31.016Z,5.43
2018-05-26T07:51:58.489Z,9.67
2018-05-26T07:54:26.037Z,9.13
2018-05-26T07:56:53.624Z,6.93
2018-05-26T07:59:21.156Z,7.67
2018-05-26T08:01:48.701Z,7.03
2018-05-26T08:04:16.173Z,7.60
2018-05-26T08:06:43.641Z,5.67
2018-05-26T08:09:11.112Z,4.60
2018-05-26T08:11:38.603Z,4.77
2018-05-26T08:14:06.189Z,10.77
2018-05-26T08:16:33.710Z,5.87
2018-05-26T08:19:01.193Z,5.00
2018-05-26T08:21:28.696Z,4.33
2018-05-26T08:23:56.184Z,8.67
2018-05-26T08:26:23.651Z,5.53
2018-05-26T08:28:51.149Z,7.67
2018-05-26T08:31:18.644Z,10.13
2018-05-26T08:33:46.251Z,6.30
2018-05-26T08:36:13.685Z,5.23
2018-05-26T08:38:41.165Z,4.07
2018-05-26T08:41:08.624Z,3.80
2018-05-26T08:43:36.122Z,6.77
2018-05-26T08:46:03.662Z,4.33
2018-05-26T08:48:31.411Z,5.60
2018-05-26T08:50:58.883Z,4.10
2018-05-26T08:53:26.340Z,7.43
2018-05-26T08:55:53.997Z,5.57
2018-05-26T08:58:21.499Z,4.73
2018-05-26T09:00:48.999Z,4.50
2018-05-26T09:03:16.501Z,4.40
2018-05-26T09:05:43.964Z,3.80
2018-05-26T09:08:11.425Z,3.90
2018-05-26T09:10:38.959Z,6.47
2018-05-26T09:13:06.511Z,6.60
2018-05-26T09:15:33.970Z,4.97
2018-05-26T09:18:01.534Z,3.93
2018-05-26T09:20:29.135Z,9.00
2018-05-26T09:22:56.613Z,6.70
2018-05-26T09:25:24.149Z,5.63
2018-05-26T09:27:51.603Z,3.97
2018-05-26T09:30:19.120Z,3.83
2018-05-26T09:32:46.607Z,4.40
2018-05-26T09:35:14.085Z,7.53
2018-05-26T09:37:41.572Z,3.57
2018-05-26T09:40:09.107Z,3.30
2018-05-26T09:42:36.591Z,3.57
2018-05-26T09:45:04.068Z,3.90
2018-05-26T09:47:31.528Z,4.27
2018-05-26T09:49:59.028Z,3.87
2018-05-26T09:52:26.496Z,3.07
2018-05-26T09:54:53.978Z,3.57
2018-05-26T09:57:21.464Z,8.90
2018-05-26T09:59:48.952Z,4.20
2018-05-26T10:02:16.412Z,3.50
2018-05-26T10:04:43.872Z,4.27
2018-05-26T10:07:12.557Z,4.17
2018-05-26T10:09:40.021Z,4.80
2018-05-26T10:12:07.522Z,4.40
2018-05-26T10:14:35.021Z,6.70
2018-05-26T10:17:02.516Z,3.17
2018-05-26T10:19:29.989Z,3.40
2018-05-26T10:21:57.458Z,3.07
2018-05-26T10:24:24.941Z,4.33
2018-05-26T10:26:52.412Z,4.37
2018-05-26T10:29:20.005Z,4.13
2018-05-26T10:31:47.497Z,4.00
2018-05-26T10:34:15.026Z,3.30
2018-05-26T10:36:42.504Z,3.90
2018-05-26T10:39:09.995Z,3.20
2018-05-26T10:41:37.462Z,3.20
2018-05-26T10:44:04.960Z,3.07
2018-05-26T10:46:32.413Z,3.50
2018-05-26T10:48:59.913Z,4.00
2018-05-26T10:51:27.394Z,3.90
2018-05-26T10:53:57.379Z,4.80
2018-05-26T10:56:25.621Z,3.23
2018-05-26T10:58:53.154Z,3.27
2018-05-26T11:01:20.658Z,3.33
2018-05-26T11:03:48.258Z,5.00
2018-05-26T11:06:15.744Z,4.20
2018-05-26T11:08:43.269Z,5.13
2018-05-26T11:11:10.757Z,3.33
2018-05-26T11:13:38.251Z,3.80
2018-05-26T11:16:05.742Z,2.97
2018-05-26T11:18:33.238Z,4.20
2018-05-26T11:21:00.701Z,3.20
2018-05-26T11:23:28.185Z,6.03
2018-05-26T11:25:55.734Z,4.27
2018-05-26T11:28:23.243Z,3.23
2018-05-26T11:30:50.993Z,3.10
2018-05-26T11:33:18.434Z,4.30
2018-05-26T11:35:45.896Z,3.40
2018-05-26T11:38:13.377Z,6.97
2018-05-26T11:40:40.923Z,3.20
2018-05-26T11:43:08.384Z,2.97
2018-05-26T11:45:35.941Z,3.40
2018-05-26T11:48:03.400Z,3.23
2018-05-26T11:50:30.879Z,3.60
2018-05-26T11:52:58.672Z,2.53
2018-05-26T11:55:26.144Z,2.63
2018-05-26T11:57:53.605Z,3.07
2018-05-26T12:00:21.194Z,2.93
2018-05-26T12:02:48.657Z,2.77
2018-05-26T12:05:16.160Z,2.90
2018-05-26T12:07:43.643Z,2.40
2018-05-26T12:10:11.232Z,2.30
2018-05-26T12:12:38.788Z,3.67
2018-05-26T12:15:06.250Z,2.93
2018-05-26T12:17:33.751Z,2.87
2018-05-26T12:20:01.213Z,2.57
2018-05-26T12:22:28.676Z,2.20
2018-05-26T12:24:56.175Z,2.20
2018-05-26T12:27:23.651Z,2.00
2018-05-26T12:29:51.121Z,2.10
2018-05-26T12:32:18.596Z,3.13
2018-05-26T12:34:46.089Z,2.27
2018-05-26T12:37:13.583Z,2.07
2018-05-26T12:39:41.058Z,2.47
2018-05-26T12:42:08.556Z,2.03
2018-05-26T12:44:36.024Z,2.47
2018-05-26T12:47:03.496Z,2.67
2018-05-26T12:49:30.992Z,2.43
2018-05-26T12:51:58.473Z,4.33
2018-05-26T12:54:26.057Z,3.03
2018-05-26T12:56:53.508Z,1.90
2018-05-26T12:59:21.009Z,2.00
2018-05-26T13:01:48.471Z,1.77
2018-05-26T13:04:15.946Z,1.80
2018-05-26T13:06:43.417Z,2.23
2018-05-26T13:09:10.977Z,1.97
2018-05-26T13:11:38.468Z,1.93
2018-05-26T13:14:05.952Z,3.40
2018-05-26T13:16:33.408Z,1.93
2018-05-26T13:19:00.906Z,2.30
2018-05-26T13:21:28.372Z,2.20
2018-05-26T13:23:55.929Z,1.80
2018-05-26T13:26:23.528Z,1.90
2018-05-26T13:28:51.010Z,2.10
2018-05-26T13:31:18.556Z,1.83
2018-05-26T13:33:46.021Z,1.70
2018-05-26T13:36:13.501Z,1.87
2018-05-26T13:38:41.031Z,3.90
2018-05-26T13:41:08.497Z,1.90
2018-05-26T13:43:36.008Z,1.70
2018-05-26T13:46:03.499Z,1.77
2018-05-26T13:48:30.985Z,1.80
2018-05-26T13:50:58.479Z,2.00
2018-05-26T13:53:26.023Z,1.67
2018-05-26T13:55:53.488Z,2.27
2018-05-26T13:58:20.913Z,1.97
2018-05-26T14:00:48.375Z,2.10
2018-05-26T14:03:15.883Z,10.70
2018-05-26T14:05:43.364Z,2.20
2018-05-26T14:08:10.840Z,1.80
2018-05-26T14:10:38.401Z,1.83
2018-05-26T14:13:05.882Z,2.00
2018-05-26T14:15:33.380Z,2.23
2018-05-26T14:18:00.941Z,2.17
2018-05-26T14:20:28.495Z,2.10
2018-05-26T14:22:55.985Z,2.40
2018-05-26T14:25:23.456Z,1.73
2018-05-26T14:27:50.957Z,2.00
2018-05-26T14:30:18.515Z,2.40
2018-05-26T14:32:46.095Z,2.10
2018-05-26T14:35:13.629Z,4.30
2018-05-26T14:37:41.094Z,3.50
2018-05-26T14:40:08.574Z,3.87
2018-05-26T14:42:36.019Z,1.87
2018-05-26T14:45:03.475Z,1.80
2018-05-26T14:47:30.932Z,2.07
2018-05-26T14:49:58.424Z,3.77
2018-05-26T14:52:25.891Z,2.13
2018-05-26T14:54:53.394Z,1.60
2018-05-26T14:57:20.947Z,2.13
2018-05-26T14:59:48.403Z,4.03
2018-05-26T15:02:15.890Z,2.10
2018-05-26T15:04:43.367Z,1.63
2018-05-26T15:07:10.907Z,1.50
2018-05-26T15:09:38.383Z,1.53
2018-05-26T15:12:05.884Z,1.93
2018-05-26T15:14:33.341Z,2.03
2018-05-26T15:17:00.790Z,1.70
2018-05-26T15:19:28.245Z,1.90
2018-05-26T15:21:55.705Z,1.60
2018-05-26T15:24:23.175Z,2.30
2018-05-26T15:26:50.644Z,1.87
2018-05-26T15:29:18.147Z,1.70
2018-05-26T15:31:45.636Z,3.83
2018-05-26T15:34:13.182Z,2.33
2018-05-26T15:36:40.663Z,2.23
2018-05-26T15:39:08.160Z,2.23
2018-05-26T15:41:35.647Z,3.70
2018-05-26T15:44:03.131Z,2.60
2018-05-26T15:46:30.580Z,2.40
2018-05-26T15:48:58.064Z,2.53
2018-05-26T15:51:25.532Z,2.40
2018-05-26T15:53:53.111Z,2.00
2018-05-26T15:56:20.590Z,2.43
2018-05-26T15:58:48.058Z,2.10
2018-05-26T16:01:15.548Z,2.40
2018-05-26T16:03:43.015Z,4.40
2018-05-26T16:06:10.500Z,3.00
2018-05-26T16:08:37.976Z,2.30
2018-05-26T16:11:05.473Z,2.27
2018-05-26T16:13:32.929Z,2.20
2018-05-26T16:16:00.400Z,2.70
2018-05-26T16:18:27.970Z,2.80
2018-05-26T16:20:55.441Z,6.03
2018-05-26T16:23:22.938Z,2.67
2018-05-26T16:25:50.392Z,2.50
2018-05-26T16:28:17.877Z,2.07
2018-05-26T16:30:45.348Z,3.70
2018-05-26T16:33:12.885Z,2.30
2018-05-26T16:35:40.348Z,2.67
2018-05-26T16:38:07.840Z,2.57
2018-05-26T16:40:35.350Z,3.00
2018-05-26T16:43:02.834Z,2.93
2018-05-26T16:45:30.306Z,3.00
2018-05-26T16:47:57.862Z,3.17
2018-05-26T16:50:25.324Z,3.07
2018-05-26T16:52:52.778Z,3.10
2018-05-26T16:55:20.323Z,11.00
2018-05-26T16:57:47.787Z,6.83
2018-05-26T17:00:15.255Z,3.80
2018-05-26T17:02:42.816Z,4.23
2018-05-26T17:05:10.279Z,3.47
2018-05-26T17:07:38.095Z,3.50
2018-05-26T17:10:05.589Z,3.53
2018-05-26T17:12:33.065Z,3.90
2018-05-26T17:15:00.552Z,3.50
2018-05-26T17:17:28.145Z,4.10
2018-05-26T17:19:55.623Z,8.77
2018-05-26T17:22:23.188Z,6.13
2018-05-26T17:24:50.678Z,5.73
2018-05-26T17:27:18.158Z,4.63
2018-05-26T17:29:45.659Z,5.80
2018-05-26T17:32:13.131Z,3.80
2018-05-26T17:34:40.617Z,4.27
2018-05-26T17:37:08.114Z,4.63
2018-05-26T17:39:35.608Z,4.10
2018-05-26T17:42:03.126Z,4.80
2018-05-26T17:44:30.621Z,5.47
2018-05-26T17:46:58.116Z,4.10
2018-05-26T17:49:25.573Z,4.97
2018-05-26T17:51:53.065Z,7.60
2018-05-26T17:54:20.527Z,5.80
2018-05-26T17:56:47.989Z,4.70
2018-05-26T17:59:15.549Z,4.60
2018-05-26T18:01:43.426Z,4.97
2018-05-26T18:04:10.882Z,5.83
2018-05-26T18:06:38.454Z,5.17
2018-05-26T18:09:05.930Z,5.60
2018-05-26T18:11:33.384Z,5.10
2018-05-26T18:14:01.665Z,8.03
2018-05-26T18:16:29.153Z,4.70
2018-05-26T18:18:56.615Z,8.10
2018-05-26T18:21:24.130Z,5.33
2018-05-26T18:23:51.621Z,5.30
2018-05-26T18:26:19.099Z,5.60
2018-05-26T18:28:46.624Z,5.17
2018-05-26T18:31:14.170Z,5.93
2018-05-26T18:33:41.660Z,5.30
2018-05-26T18:36:09.136Z,5.30
2018-05-26T18:38:36.598Z,4.97
2018-05-26T18:41:04.054Z,5.80
2018-05-26T18:43:31.727Z,6.27
2018-05-26T18:45:59.210Z,7.50
2018-05-26T18:48:26.707Z,7.43
2018-05-26T18:50:54.184Z,7.00
2018-05-26T18:53:21.637Z,6.77
2018-05-26T18:55:49.092Z,8.43
2018-05-26T18:58:16.875Z,7.10
2018-05-26T19:00:44.361Z,7.40
2018-05-26T19:03:11.846Z,7.30
2018-05-26T19:05:39.326Z,7.47
2018-05-26T19:08:07.041Z,8.00
2018-05-26T19:10:34.546Z,8.43
2018-05-26T19:13:02.064Z,8.93
2018-05-26T19:15:29.594Z,8.23
2018-05-26T19:17:57.057Z,6.80
2018-05-26T19:20:24.619Z,10.03
2018-05-26T19:22:52.080Z,7.00
2018-05-26T19:25:19.578Z,7.60
2018-05-26T19:27:47.054Z,7.90
2018-05-26T19:30:14.519Z,8.37
2018-05-26T19:32:41.966Z,8.13
2018-05-26T19:35:09.420Z,7.93
2018-05-26T19:37:36.992Z,7.90
2018-05-26T19:40:04.449Z,7.60
2018-05-26T19:42:31.999Z,8.70
2018-05-26T19:44:59.500Z,7.57
2018-05-26T19:47:27.083Z,9.00
2018-05-26T19:52:45.734Z,18.40
2018-05-26T20:03:47.165Z,13.00
2018-05-26T20:06:14.648Z,8.67
2018-05-26T20:08:42.127Z,9.00
2018-05-26T20:11:09.633Z,10.90
2018-05-26T20:13:37.134Z,15.40
2018-05-26T20:16:04.621Z,9.20
2018-05-26T20:18:32.076Z,9.63
2018-05-26T20:20:59.651Z,10.00
2018-05-26T20:23:27.122Z,9.97
2018-05-26T20:25:54.638Z,9.17
2018-05-26T20:28:22.115Z,17.13
2018-05-26T20:30:53.654Z,10.63
2018-05-26T20:33:21.137Z,13.30
2018-05-26T20:35:48.865Z,9.60
2018-05-26T20:38:18.521Z,8.93
2018-05-26T20:40:45.985Z,9.87
2018-05-26T20:43:14.582Z,14.23
2018-05-26T20:45:42.068Z,12.47
2018-05-26T20:48:09.539Z,13.20
2018-05-26T20:50:37.005Z,12.87
2018-05-26T20:53:04.542Z,15.70
2018-05-26T20:55:32.032Z,17.73
2018-05-26T20:57:59.565Z,10.87
2018-05-26T21:00:28.533Z,9.80
2018-05-26T21:02:56.126Z,17.10
2018-05-26T21:05:23.820Z,12.60
2018-05-26T21:07:51.392Z,18.80
2018-05-26T21:10:18.924Z,12.37
2018-05-26T21:12:46.389Z,11.93
2018-05-26T21:15:13.926Z,13.70
2018-05-26T21:17:41.492Z,12.93
2018-05-26T21:20:09.033Z,14.53
2018-05-26T21:22:36.503Z,11.90
2018-05-26T21:27:54.397Z,14.00
2018-05-26T21:30:21.829Z,11.23
2018-05-26T21:32:49.312Z,13.00
2018-05-26T21:35:16.800Z,13.43
2018-05-26T21:37:44.289Z,16.73
2018-05-26T21:40:11.789Z,21.73
2018-05-26T21:42:39.276Z,14.00
2018-05-26T21:45:06.791Z,16.83
2018-05-26T21:47:34.313Z,15.73
2018-05-26T21:50:01.804Z,17.10
2018-05-26T21:52:29.368Z,17.90
2018-05-26T21:54:57.057Z,15.70
2018-05-26T21:57:24.526Z,18.17
2018-05-26T21:59:52.014Z,15.70
2018-05-26T22:02:19.572Z,12.30
2018-05-26T22:04:47.207Z,15.80
2018-05-26T22:07:16.496Z,13.43
2018-05-26T22:09:44.809Z,14.60
2018-05-26T22:12:12.275Z,16.93
2018-05-26T22:14:40.521Z,14.10
2018-05-26T22:17:08.861Z,14.80
2018-05-26T22:19:37.705Z,14.03
2018-05-26T22:22:07.926Z,17.40
2018-05-26T22:24:36.145Z,11.93
2018-05-26T22:27:05.653Z,14.23
2018-05-26T22:29:35.170Z,15.63
2018-05-26T22:32:02.649Z,13.20
2018-05-26T22:34:30.166Z,16.53
2018-05-26T22:36:58.169Z,18.17
2018-05-26T22:39:25.717Z,12.73
2018-05-26T22:41:53.646Z,15.83
2018-05-26T22:44:21.270Z,13.43
2018-05-26T22:46:48.762Z,15.30
2018-05-26T22:49:16.776Z,15.70
2018-05-26T22:51:44.265Z,22.00
2018-05-26T22:54:11.859Z,13.80
2018-05-26T22:56:40.467Z,13.90
2018-05-26T22:59:07.959Z,15.47
2018-05-26T23:01:35.581Z,14.37
2018-05-26T23:04:03.758Z,19.17
2018-05-26T23:06:31.791Z,14.60
2018-05-26T23:08:59.699Z,17.73
2018-05-26T23:11:27.213Z,14.50
2018-05-26T23:13:54.748Z,16.33
2018-05-26T23:16:22.332Z,17.53
2018-05-26T23:18:50.478Z,12.93
2018-05-26T23:21:18.297Z,15.33
2018-05-26T23:23:46.084Z,12.97
2018-05-26T23:26:13.822Z,14.47
2018-05-26T23:28:43.899Z,17.77
2018-05-26T23:31:14.118Z,11.67
2018-05-26T23:33:42.675Z,14.67
2018-05-26T23:36:10.527Z,14.93
2018-05-26T23:38:38.045Z,13.87
2018-05-26T23:41:06.439Z,14.40
2018-05-26T23:43:35.589Z,14.30
2018-05-26T23:46:06.506Z,13.20
2018-05-26T23:48:34.373Z,13.93
2018-05-26T23:51:02.204Z,15.90
2018-05-26T23:53:30.371Z,16.00
2018-05-26T23:55:58.050Z,23.07
2018-05-26T23:58:25.833Z,16.60
